Time;durP1;ratioP1;P1;durP2;ratioP2;P2;SDS_P1;SDS_P2;PMS_P1;PMS_P2;Temp;Humidity;BMP_temperature;BMP_pressure;BME280_temperature;BME280_humidity;BME280_pressure;Samples;Min_cycle;Max_cycle;Signal;HPM_P1;HPM_P2
2021/11/24 00:02:05;;;;;;;54.70;34.45;;;6.80;84.80;;;;;;4919030;29;20088;-82
2021/11/24 00:04:33;;;;;;;54.55;35.13;;;6.80;84.80;;;;;;4915522;29;20051;-82
2021/11/24 00:07:00;;;;;;;60.83;34.78;;;6.70;84.80;;;;;;4918039;29;20052;-82
2021/11/24 00:09:27;;;;;;;53.95;35.42;;;6.70;84.90;;;;;;4932109;29;20058;-82
2021/11/24 00:11:54;;;;;;;53.25;34.53;;;6.80;84.90;;;;;;4931050;29;20059;-82
2021/11/24 00:14:21;;;;;;;57.22;34.83;;;6.80;84.90;;;;;;4931397;29;20058;-82
2021/11/24 00:16:47;;;;;;;55.92;36.03;;;6.70;84.90;;;;;;4930376;29;20102;-82
2021/11/24 00:19:14;;;;;;;57.20;34.95;;;6.70;84.90;;;;;;4931369;29;20051;-81
2021/11/24 00:21:41;;;;;;;58.67;36.38;;;6.80;84.90;;;;;;4933355;29;20068;-82
2021/11/24 00:24:08;;;;;;;57.90;36.50;;;6.70;84.90;;;;;;4931177;29;20047;-82
2021/11/24 00:26:35;;;;;;;57.58;36.50;;;6.70;84.90;;;;;;4930920;29;20099;-83
2021/11/24 00:29:02;;;;;;;55.28;35.85;;;6.80;84.90;;;;;;4930208;29;20051;-82
2021/11/24 00:31:29;;;;;;;56.45;36.13;;;6.80;84.90;;;;;;4916434;29;20541;-82
2021/11/24 00:33:56;;;;;;;57.90;35.50;;;6.70;84.90;;;;;;4929312;29;20056;-82
2021/11/24 00:36:24;;;;;;;59.90;36.70;;;6.80;84.90;;;;;;4929946;29;20500;-82
2021/11/24 00:38:51;;;;;;;55.42;37.03;;;6.80;84.90;;;;;;4931255;29;20106;-82
2021/11/24 00:41:17;;;;;;;60.15;35.08;;;6.80;84.90;;;;;;4929459;29;20482;-82
2021/11/24 00:43:44;;;;;;;60.15;35.17;;;6.80;85.00;;;;;;4931356;29;20051;-82
2021/11/24 00:46:11;;;;;;;64.35;35.90;;;6.70;85.00;;;;;;4934815;29;20118;-82
2021/11/24 00:48:38;;;;;;;57.13;35.05;;;6.80;85.00;;;;;;4936334;29;20055;-82
2021/11/24 00:51:05;;;;;;;61.35;35.67;;;6.80;85.00;;;;;;4934563;29;20043;-82
2021/11/24 00:53:32;;;;;;;58.80;35.47;;;6.80;85.00;;;;;;4934390;29;20059;-82
2021/11/24 00:55:59;;;;;;;52.70;34.88;;;6.80;85.00;;;;;;4934177;29;20052;-82
2021/11/24 00:58:26;;;;;;;55.83;35.22;;;6.80;85.00;;;;;;4934597;29;20047;-82
2021/11/24 01:00:53;;;;;;;50.50;35.38;;;6.80;85.00;;;;;;4936355;29;20047;-82
2021/11/24 01:03:20;;;;;;;56.13;35.67;;;6.70;85.00;;;;;;4934375;29;20055;-82
2021/11/24 01:05:47;;;;;;;60.22;35.22;;;6.80;85.00;;;;;;4934270;29;20048;-83
2021/11/24 01:08:15;;;;;;;55.67;34.05;;;6.80;85.00;;;;;;4934297;29;20055;-82
2021/11/24 01:10:44;;;;;;;62.65;34.85;;;6.70;85.00;;;;;;4934064;29;20111;-82
2021/11/24 01:13:13;;;;;;;60.05;36.40;;;6.80;85.00;;;;;;4934996;29;20055;-82
2021/11/24 01:15:41;;;;;;;55.03;35.92;;;6.80;85.00;;;;;;4936279;29;20047;-84
2021/11/24 01:18:07;;;;;;;61.88;36.67;;;6.70;85.00;;;;;;4934206;29;20052;-82
2021/11/24 01:20:35;;;;;;;59.75;34.83;;;6.70;85.00;;;;;;4932629;29;20512;-83
2021/11/24 01:23:01;;;;;;;56.42;35.00;;;6.80;85.00;;;;;;4934004;29;20458;-82
2021/11/24 01:25:29;;;;;;;58.25;35.65;;;6.80;85.00;;;;;;4918728;29;20048;-82
2021/11/24 01:27:57;;;;;;;54.53;35.35;;;6.80;85.00;;;;;;4931964;29;20409;-83
2021/11/24 01:30:25;;;;;;;55.63;35.63;;;6.80;85.00;;;;;;4932396;29;20051;-82
2021/11/24 01:32:52;;;;;;;55.20;34.55;;;6.70;85.00;;;;;;4933831;29;20107;-82
2021/11/24 01:35:19;;;;;;;56.50;34.78;;;6.80;85.00;;;;;;4933638;29;20055;-82
2021/11/24 01:37:46;;;;;;;53.45;33.92;;;6.80;85.00;;;;;;4933836;29;20040;-82
2021/11/24 01:40:14;;;;;;;52.47;34.15;;;6.70;85.00;;;;;;4933772;29;20059;-82
2021/11/24 01:42:42;;;;;;;53.03;34.92;;;6.70;85.00;;;;;;4933853;29;20058;-82
2021/11/24 01:45:11;;;;;;;56.05;34.67;;;6.70;85.00;;;;;;4933629;29;20059;-82
2021/11/24 01:47:38;;;;;;;58.17;33.97;;;6.70;85.00;;;;;;4933740;29;20110;-82
2021/11/24 01:50:07;;;;;;;55.25;34.72;;;6.70;85.00;;;;;;4933552;29;20047;-82
2021/11/24 01:52:34;;;;;;;58.17;35.50;;;6.70;85.00;;;;;;4932041;29;20540;-82
2021/11/24 01:55:02;;;;;;;57.28;36.13;;;6.70;85.00;;;;;;4934594;29;20668;-82
2021/11/24 01:57:29;;;;;;;55.25;35.38;;;6.70;85.10;;;;;;4932600;29;20066;-82
2021/11/24 01:59:58;;;;;;;57.30;35.15;;;6.70;85.10;;;;;;4932010;29;20055;-83
2021/11/24 02:02:28;;;;;;;63.97;34.88;;;6.70;85.10;;;;;;4933307;29;20051;-82
2021/11/24 02:04:55;;;;;;;62.78;34.63;;;6.70;85.10;;;;;;4933312;29;20596;-81
2021/11/24 02:07:22;;;;;;;63.58;36.40;;;6.70;85.10;;;;;;4933311;29;20063;-82
2021/11/24 02:09:49;;;;;;;60.63;37.03;;;6.70;85.10;;;;;;4934877;29;20110;-82
2021/11/24 02:12:16;;;;;;;59.30;35.65;;;6.70;85.10;;;;;;4933144;29;20047;-82
2021/11/24 02:14:44;;;;;;;66.50;37.15;;;6.70;85.10;;;;;;4932995;29;20679;-83
2021/11/24 02:17:16;;;;;;;64.55;36.10;;;6.70;85.20;;;;;;4933045;29;20039;-83
2021/11/24 02:19:44;;;;;;;66.38;37.70;;;6.60;85.10;;;;;;4933142;29;20047;-83
2021/11/24 02:22:12;;;;;;;70.40;38.80;;;6.70;85.10;;;;;;4933532;29;20051;-83
2021/11/24 02:24:40;;;;;;;67.28;36.85;;;6.70;85.20;;;;;;4932503;29;20054;-83
2021/11/24 02:27:10;;;;;;;60.25;36.95;;;6.60;85.20;;;;;;4932820;29;20055;-82
2021/11/24 02:29:37;;;;;;;69.20;38.28;;;6.70;85.20;;;;;;4932768;29;20650;-82
2021/11/24 02:32:05;;;;;;;73.95;38.53;;;6.70;85.20;;;;;;4931244;29;20047;-82
2021/11/24 02:34:34;;;;;;;67.32;39.03;;;6.70;85.20;;;;;;4932807;29;20143;-83
2021/11/24 02:37:01;;;;;;;65.80;38.75;;;6.70;85.20;;;;;;4933932;29;20055;-82
2021/11/24 02:39:29;;;;;;;69.20;39.40;;;6.70;85.20;;;;;;4932040;29;20103;-82
2021/11/24 02:41:57;;;;;;;67.82;38.45;;;6.60;85.20;;;;;;4932569;29;20052;-82
2021/11/24 02:44:32;;;;;;;70.43;38.83;;;6.70;85.20;;;;;;4932510;29;20055;-82
2021/11/24 02:47:10;;;;;;;75.68;39.55;;;6.70;85.20;;;;;;4932740;29;20048;-82
2021/11/24 02:49:41;;;;;;;68.60;39.15;;;6.60;85.20;;;;;;4918735;29;20457;-82
2021/11/24 02:52:10;;;;;;;70.85;40.40;;;6.70;85.20;;;;;;4933069;29;20052;-82
2021/11/24 02:54:39;;;;;;;75.63;38.92;;;6.60;85.20;;;;;;4934081;29;20099;-82
2021/11/24 02:57:08;;;;;;;77.40;41.10;;;6.60;85.20;;;;;;4932204;29;20047;-82
2021/11/24 02:59:37;;;;;;;72.22;39.33;;;6.70;85.20;;;;;;4932270;29;20060;-82
2021/11/24 03:02:04;;;;;;;78.32;40.97;;;6.70;85.20;;;;;;4932331;29;20050;-82
2021/11/24 03:04:33;;;;;;;83.45;41.95;;;6.60;85.20;;;;;;4931076;29;20052;-82
2021/11/24 03:07:02;;;;;;;77.80;41.70;;;6.60;85.20;;;;;;4932957;29;20055;-82
2021/11/24 03:09:30;;;;;;;78.97;42.05;;;6.70;85.30;;;;;;4931696;29;20059;-82
2021/11/24 03:11:57;;;;;;;84.10;40.25;;;6.70;85.20;;;;;;4932026;29;20051;-82
2021/11/24 03:14:24;;;;;;;77.15;41.85;;;6.70;85.30;;;;;;4931942;29;20055;-83
2021/11/24 03:16:55;;;;;;;77.90;40.08;;;6.60;85.30;;;;;;4930917;29;20047;-82
2021/11/24 03:19:23;;;;;;;82.20;41.38;;;6.60;85.30;;;;;;4932088;29;20059;-82
2021/11/24 03:21:50;;;;;;;79.30;40.15;;;6.60;85.30;;;;;;4933628;29;20538;-82
2021/11/24 03:24:17;;;;;;;79.78;40.83;;;6.60;85.30;;;;;;4931797;29;20078;-82
2021/11/24 03:26:44;;;;;;;81.85;42.72;;;6.60;85.30;;;;;;4931913;29;20056;-82
2021/11/24 03:29:11;;;;;;;88.78;41.47;;;6.60;85.30;;;;;;4931923;29;20059;-82
2021/11/24 03:31:38;;;;;;;84.22;42.65;;;6.60;85.30;;;;;;4931929;29;20051;-82
2021/11/24 03:34:06;;;;;;;80.30;44.38;;;6.60;85.30;;;;;;4933075;29;20051;-82
2021/11/24 03:36:33;;;;;;;85.45;43.92;;;6.60;85.30;;;;;;4932578;29;20074;-82
2021/11/24 03:39:00;;;;;;;79.78;41.28;;;6.60;85.30;;;;;;4931664;29;20060;-82
2021/11/24 03:41:27;;;;;;;85.43;42.22;;;6.60;85.30;;;;;;4931577;29;20044;-82
2021/11/24 03:43:54;;;;;;;90.43;44.10;;;6.60;85.30;;;;;;4931809;29;20055;-82
2021/11/24 03:46:21;;;;;;;80.65;42.45;;;6.60;85.30;;;;;;4931786;29;20060;-82
2021/11/24 03:48:49;;;;;;;86.85;42.95;;;6.60;85.30;;;;;;4933654;29;20066;-82
2021/11/24 03:51:16;;;;;;;83.20;42.90;;;6.60;85.30;;;;;;4929796;29;20591;-82
2021/11/24 03:53:43;;;;;;;88.38;43.75;;;6.60;85.40;;;;;;4931550;29;20107;-82
2021/11/24 03:56:12;;;;;;;92.53;44.35;;;6.60;85.40;;;;;;4930086;29;20548;-82
2021/11/24 03:58:39;;;;;;;94.18;44.67;;;6.60;85.40;;;;;;4931730;29;20048;-82
2021/11/24 04:01:07;;;;;;;87.88;43.95;;;6.60;85.40;;;;;;4932791;29;20051;-82
2021/11/24 04:03:34;;;;;;;93.78;46.03;;;6.60;85.40;;;;;;4932855;29;20051;-82
2021/11/24 04:06:01;;;;;;;84.68;44.97;;;6.60;85.40;;;;;;4931147;29;20081;-82
2021/11/24 04:08:28;;;;;;;90.20;44.45;;;6.60;85.40;;;;;;4931451;29;20044;-82
2021/11/24 04:10:55;;;;;;;96.30;44.22;;;6.60;85.40;;;;;;4931603;29;20055;-82
2021/11/24 04:13:22;;;;;;;88.55;43.90;;;6.60;85.40;;;;;;4931439;29;20075;-82
2021/11/24 04:15:49;;;;;;;85.68;45.03;;;6.60;85.40;;;;;;4933459;29;20572;-82
2021/11/24 04:18:15;;;;;;;89.32;43.13;;;6.60;85.40;;;;;;4931601;29;20054;-82
2021/11/24 04:20:42;;;;;;;91.35;43.78;;;6.60;85.50;;;;;;4935133;29;20051;-82
2021/11/24 04:23:10;;;;;;;90.88;44.45;;;6.60;85.40;;;;;;4935119;29;20044;-82
2021/11/24 04:25:37;;;;;;;88.70;44.13;;;6.60;85.50;;;;;;4935047;29;20079;-82
2021/11/24 04:28:04;;;;;;;90.45;44.50;;;6.60;85.40;;;;;;4936360;29;20051;-82
2021/11/24 04:30:31;;;;;;;91.82;44.58;;;6.60;85.50;;;;;;4935667;29;20047;-82
2021/11/24 04:32:58;;;;;;;97.82;46.05;;;6.60;85.50;;;;;;4934661;29;20099;-82
2021/11/24 04:35:24;;;;;;;88.93;45.00;;;6.60;85.50;;;;;;4933604;29;20047;-82
2021/11/24 04:37:52;;;;;;;95.78;46.92;;;6.60;85.50;;;;;;4934838;29;20047;-82
2021/11/24 04:40:20;;;;;;;100.07;46.00;;;6.60;85.50;;;;;;4934927;29;20064;-82
2021/11/24 04:42:47;;;;;;;101.03;46.42;;;6.60;85.50;;;;;;4936813;29;20078;-82
2021/11/24 04:45:15;;;;;;;104.47;45.75;;;6.60;85.50;;;;;;4934701;29;20067;-82
2021/11/24 04:47:42;;;;;;;99.78;46.67;;;6.60;85.50;;;;;;4934383;29;20052;-82
2021/11/24 04:50:09;;;;;;;94.35;45.25;;;6.60;85.50;;;;;;4934617;29;20052;-82
2021/11/24 04:52:36;;;;;;;98.13;47.47;;;6.60;85.50;;;;;;4934756;29;20059;-82
2021/11/24 04:55:05;;;;;;;99.50;45.20;;;6.70;85.50;;;;;;4935838;29;20055;-82
2021/11/24 04:57:32;;;;;;;105.03;47.50;;;6.60;85.50;;;;;;4933382;29;20056;-82
2021/11/24 04:59:59;;;;;;;93.78;46.60;;;6.70;85.50;;;;;;4934413;29;20063;-82
2021/11/24 05:02:26;;;;;;;103.05;46.65;;;6.70;85.50;;;;;;4934054;29;20067;-82
2021/11/24 05:04:53;;;;;;;96.65;45.67;;;6.60;85.50;;;;;;4934547;29;20149;-82
2021/11/24 05:07:19;;;;;;;112.13;48.55;;;6.70;85.50;;;;;;4933085;29;20685;-82
2021/11/24 05:10:00;;;;;;;108.00;47.72;;;6.70;85.50;;;;;;4932548;29;20090;-82
2021/11/24 05:12:27;;;;;;;97.30;47.33;;;6.70;85.50;;;;;;4934468;29;20115;-82
2021/11/24 05:14:55;;;;;;;107.75;47.22;;;6.70;85.50;;;;;;4932932;29;20055;-82
2021/11/24 05:17:24;;;;;;;103.30;48.60;;;6.70;85.50;;;;;;4933828;29;20055;-82
2021/11/24 05:19:52;;;;;;;111.25;47.90;;;6.70;85.50;;;;;;4934181;29;20457;-82
2021/11/24 05:22:20;;;;;;;114.15;48.75;;;6.70;85.50;;;;;;4934155;29;20060;-82
2021/11/24 05:24:49;;;;;;;112.85;48.50;;;6.60;85.50;;;;;;4936059;29;20146;-82
2021/11/24 05:27:17;;;;;;;105.35;46.72;;;6.70;85.50;;;;;;4934010;29;20123;-82
2021/11/24 05:29:44;;;;;;;101.47;48.03;;;6.70;85.50;;;;;;4933703;29;20055;-82
2021/11/24 05:32:11;;;;;;;112.78;47.40;;;6.70;85.50;;;;;;4933188;29;20095;-82
2021/11/24 05:34:38;;;;;;;114.63;49.63;;;6.70;85.50;;;;;;4933905;29;20106;-82
2021/11/24 05:37:07;;;;;;;114.68;50.03;;;6.70;85.50;;;;;;4935166;29;20056;-82
2021/11/24 05:39:35;;;;;;;114.03;49.22;;;6.70;85.50;;;;;;4935009;29;20056;-82
2021/11/24 05:42:04;;;;;;;118.70;50.03;;;6.70;85.50;;;;;;4933742;29;20044;-82
2021/11/24 05:44:34;;;;;;;103.60;46.65;;;6.70;85.50;;;;;;4933705;29;20056;-82
2021/11/24 05:47:11;;;;;;;118.28;48.70;;;6.70;85.50;;;;;;4933519;29;20043;-82
2021/11/24 05:49:50;;;;;;;113.63;48.17;;;6.70;85.50;;;;;;4921408;29;20082;-82
2021/11/24 05:52:17;;;;;;;122.80;49.00;;;6.70;85.50;;;;;;4934050;29;20051;-82
2021/11/24 05:54:44;;;;;;;126.10;50.05;;;6.70;85.50;;;;;;4934018;29;20663;-82
2021/11/24 05:57:11;;;;;;;117.68;48.95;;;6.70;85.50;;;;;;4933292;29;20059;-82
2021/11/24 05:59:38;;;;;;;122.85;49.38;;;6.70;85.50;;;;;;4932160;29;20051;-82
2021/11/24 06:02:05;;;;;;;124.05;49.30;;;6.70;85.50;;;;;;4932909;29;20103;-82
2021/11/24 06:04:33;;;;;;;124.10;47.50;;;6.70;85.50;;;;;;4933407;29;20052;-82
2021/11/24 06:07:00;;;;;;;131.27;49.13;;;6.60;85.50;;;;;;4935178;29;20071;-82
2021/11/24 06:09:26;;;;;;;135.32;48.50;;;6.70;85.50;;;;;;4933787;29;20429;-82
2021/11/24 06:11:53;;;;;;;130.65;48.75;;;6.70;85.60;;;;;;4933115;29;20517;-82
2021/11/24 06:14:20;;;;;;;135.60;49.33;;;6.70;85.50;;;;;;4932639;29;20079;-82
2021/11/24 06:16:47;;;;;;;147.25;48.97;;;6.70;85.50;;;;;;4933294;29;20043;-82
2021/11/24 06:19:14;;;;;;;133.63;48.95;;;6.70;85.60;;;;;;4931971;29;20058;-82
2021/11/24 06:21:41;;;;;;;147.20;50.55;;;6.70;85.50;;;;;;4933218;29;20106;-82
2021/11/24 06:24:08;;;;;;;150.63;49.40;;;6.60;85.50;;;;;;4932919;29;20464;-82
2021/11/24 06:26:35;;;;;;;161.75;49.72;;;6.70;85.60;;;;;;4931380;29;20512;-82
2021/11/24 06:29:02;;;;;;;154.27;48.80;;;6.70;85.60;;;;;;4932650;29;20044;-82
2021/11/24 06:31:29;;;;;;;161.65;51.60;;;6.70;85.60;;;;;;4917945;29;20406;-82
2021/11/24 06:33:56;;;;;;;156.70;49.13;;;6.70;85.60;;;;;;4930791;29;20058;-82
2021/11/24 06:36:29;;;;;;;161.55;50.05;;;6.60;85.60;;;;;;4933084;29;20059;-82
2021/11/24 06:38:56;;;;;;;171.93;48.58;;;6.60;85.60;;;;;;4932811;29;20103;-82
2021/11/24 06:41:23;;;;;;;174.73;51.33;;;6.60;85.60;;;;;;4932603;29;20058;-82
2021/11/24 06:43:49;;;;;;;165.68;48.58;;;6.70;85.60;;;;;;4932359;29;20568;-82
2021/11/24 06:46:16;;;;;;;182.07;48.97;;;6.70;85.60;;;;;;4932772;29;20119;-82
2021/11/24 06:48:43;;;;;;;170.85;47.20;;;6.60;85.60;;;;;;4934454;29;20122;-82
2021/11/24 06:51:10;;;;;;;173.65;47.03;;;6.60;85.60;;;;;;4932452;29;20506;-82
2021/11/24 06:53:38;;;;;;;171.07;47.30;;;6.60;85.60;;;;;;4932426;29;20083;-82
2021/11/24 06:56:05;;;;;;;175.55;47.22;;;6.60;85.60;;;;;;4932252;29;20126;-82
2021/11/24 06:58:32;;;;;;;165.52;45.05;;;6.60;85.60;;;;;;4932140;29;20055;-82
2021/11/24 07:01:01;;;;;;;179.27;46.15;;;6.60;85.60;;;;;;4934339;29;20082;-82
2021/11/24 07:03:28;;;;;;;181.05;44.53;;;6.60;85.60;;;;;;4932676;29;20051;-82
2021/11/24 07:05:56;;;;;;;168.50;45.20;;;6.60;85.60;;;;;;4930697;29;20505;-81
2021/11/24 07:08:23;;;;;;;174.70;43.80;;;6.60;85.60;;;;;;4932118;29;20406;-83
2021/11/24 07:10:49;;;;;;;180.45;45.42;;;6.60;85.60;;;;;;4929750;29;20103;-82
2021/11/24 07:13:17;;;;;;;168.50;43.17;;;6.50;85.60;;;;;;4931798;29;20642;-82
2021/11/24 07:15:43;;;;;;;169.32;42.80;;;6.60;85.60;;;;;;4934100;29;20394;-82
2021/11/24 07:18:10;;;;;;;153.07;39.65;;;6.60;85.60;;;;;;4931995;29;20077;-82
2021/11/24 07:20:37;;;;;;;151.85;41.15;;;6.50;85.60;;;;;;4927876;29;20056;-82
2021/11/24 07:23:04;;;;;;;163.93;41.05;;;6.50;85.60;;;;;;4921256;29;20048;-82
2021/11/24 07:25:32;;;;;;;152.38;41.47;;;6.50;85.60;;;;;;4937167;29;20055;-83
2021/11/24 07:27:59;;;;;;;170.20;41.97;;;6.50;85.60;;;;;;4934708;29;20052;-82
2021/11/24 07:30:27;;;;;;;168.00;39.60;;;6.60;85.70;;;;;;4931469;29;20189;-82
2021/11/24 07:32:54;;;;;;;156.15;39.63;;;6.50;85.70;;;;;;4933151;29;20056;-82
2021/11/24 07:35:21;;;;;;;165.93;39.22;;;6.50;85.70;;;;;;4932715;29;20051;-82
2021/11/24 07:37:48;;;;;;;151.57;37.97;;;6.50;85.70;;;;;;4932597;29;20432;-82
2021/11/24 07:40:16;;;;;;;145.98;37.70;;;6.50;85.70;;;;;;4933073;29;20175;-83
2021/11/24 07:42:43;;;;;;;152.45;38.38;;;6.50;85.70;;;;;;4934361;29;20086;-82
2021/11/24 07:45:10;;;;;;;154.05;38.40;;;6.50;85.70;;;;;;4930972;29;20052;-82
2021/11/24 07:47:37;;;;;;;145.32;37.28;;;6.50;85.70;;;;;;4932815;29;20103;-82
2021/11/24 07:50:05;;;;;;;148.52;36.50;;;6.50;85.70;;;;;;4931213;29;20071;-82
2021/11/24 07:52:33;;;;;;;174.05;40.80;;;6.50;85.70;;;;;;4932577;29;20048;-82
2021/11/24 07:55:00;;;;;;;146.55;38.33;;;6.50;85.70;;;;;;4940019;29;20056;-82
2021/11/24 07:57:28;;;;;;;166.35;39.25;;;6.50;85.70;;;;;;4939317;29;20124;-82
2021/11/24 07:59:55;;;;;;;153.25;37.40;;;6.50;85.70;;;;;;4938466;29;20047;-82
2021/11/24 08:02:23;;;;;;;142.30;35.38;;;6.50;85.70;;;;;;4939094;29;20055;-82
2021/11/24 08:04:51;;;;;;;152.50;37.67;;;6.50;85.70;;;;;;4939141;29;20055;-82
2021/11/24 08:07:18;;;;;;;148.90;37.55;;;6.50;85.80;;;;;;4938775;29;20099;-82
2021/11/24 08:09:45;;;;;;;138.05;36.25;;;6.50;85.70;;;;;;4940937;29;20060;-82
2021/11/24 08:12:32;;;;;;;149.95;37.50;;;6.50;85.80;;;;;;4937409;29;20083;-82
2021/11/24 08:15:00;;;;;;;147.38;37.47;;;6.50;85.70;;;;;;4938419;29;20517;-82
2021/11/24 08:17:27;;;;;;;160.82;37.63;;;6.50;85.80;;;;;;4939027;29;20051;-82
2021/11/24 08:19:54;;;;;;;154.05;35.63;;;6.50;85.80;;;;;;4938980;29;20044;-82
2021/11/24 08:22:23;;;;;;;148.27;36.30;;;6.50;85.80;;;;;;4938438;29;20062;-82
2021/11/24 08:24:51;;;;;;;142.20;36.42;;;6.50;85.80;;;;;;4939797;29;20444;-82
2021/11/24 08:27:18;;;;;;;150.50;35.88;;;6.50;85.80;;;;;;4938786;29;20051;-82
2021/11/24 08:29:45;;;;;;;156.68;36.33;;;6.50;85.80;;;;;;4937240;29;20067;-82
2021/11/24 08:32:12;;;;;;;144.88;34.85;;;6.50;85.80;;;;;;4938814;29;20043;-82
2021/11/24 08:34:39;;;;;;;146.95;34.22;;;6.50;85.80;;;;;;4938975;29;20039;-82
2021/11/24 08:37:06;;;;;;;132.02;34.38;;;6.50;85.80;;;;;;4939803;29;20063;-82
2021/11/24 08:39:35;;;;;;;146.68;35.08;;;6.50;85.80;;;;;;4939620;29;20047;-82
2021/11/24 08:42:04;;;;;;;142.80;34.63;;;6.50;85.80;;;;;;4938715;29;20067;-82
2021/11/24 08:44:32;;;;;;;154.70;36.50;;;6.50;85.80;;;;;;4937898;29;20067;-82
2021/11/24 08:46:59;;;;;;;152.65;36.20;;;6.50;85.80;;;;;;4939022;29;20051;-82
2021/11/24 08:49:25;;;;;;;147.50;34.38;;;6.60;85.80;;;;;;4938655;29;20295;-82
2021/11/24 08:51:52;;;;;;;130.23;33.30;;;6.50;85.80;;;;;;4940329;29;20097;-82
2021/11/24 08:54:19;;;;;;;132.45;34.20;;;6.50;85.80;;;;;;4938204;29;20051;-83
2021/11/24 08:56:46;;;;;;;126.75;32.63;;;6.50;85.80;;;;;;4938519;29;20122;-81
2021/11/24 08:59:14;;;;;;;128.95;32.50;;;6.50;85.80;;;;;;4938482;29;20130;-82
2021/11/24 09:01:40;;;;;;;120.10;31.42;;;6.50;85.80;;;;;;4937310;29;20056;-82
2021/11/24 09:04:08;;;;;;;129.32;33.78;;;6.50;85.80;;;;;;4939584;29;20142;-82
2021/11/24 09:06:35;;;;;;;128.80;32.45;;;6.50;85.80;;;;;;4935334;29;20058;-82
2021/11/24 09:09:06;;;;;;;114.88;30.85;;;6.50;85.80;;;;;;4933952;29;20468;-82
2021/11/24 09:11:34;;;;;;;108.35;29.27;;;6.50;85.80;;;;;;4935343;29;20060;-82
2021/11/24 09:14:01;;;;;;;114.20;30.15;;;6.60;85.80;;;;;;4935056;29;20050;-82
2021/11/24 09:16:28;;;;;;;122.05;30.70;;;6.50;85.80;;;;;;4935474;29;20099;-82
2021/11/24 09:18:55;;;;;;;97.05;28.55;;;6.50;85.80;;;;;;4937364;29;20058;-82
2021/11/24 09:21:23;;;;;;;114.18;30.67;;;6.50;85.80;;;;;;4935047;29;20059;-82
2021/11/24 09:23:52;;;;;;;120.60;29.17;;;6.60;85.80;;;;;;4934678;29;20103;-82
2021/11/24 09:29:18;;;;;;;123.90;30.70;;;6.60;85.80;;;;;;4895791;29;20045;-81
2021/11/24 09:31:45;;;;;;;107.28;29.20;;;6.60;85.90;;;;;;4894997;29;20048;-82
2021/11/24 09:34:12;;;;;;;107.43;29.17;;;6.60;85.90;;;;;;4880068;29;20049;-82
2021/11/24 09:36:41;;;;;;;106.60;29.35;;;6.60;85.90;;;;;;4882926;29;20048;-82
2021/11/24 09:39:09;;;;;;;101.90;29.33;;;6.60;85.90;;;;;;4883835;29;20063;-83
2021/11/24 09:41:42;;;;;;;105.80;28.42;;;6.60;85.90;;;;;;4883978;29;20052;-83
2021/11/24 09:44:09;;;;;;;100.90;27.88;;;6.60;85.90;;;;;;4884238;29;20056;-82
2021/11/24 09:46:40;;;;;;;103.80;28.40;;;6.60;85.90;;;;;;4880480;29;20048;-83
2021/11/24 09:49:08;;;;;;;106.60;29.00;;;6.60;85.90;;;;;;4894832;29;20067;-82
2021/11/24 09:51:35;;;;;;;105.18;28.35;;;6.60;85.90;;;;;;4883296;29;20053;-83
2021/11/24 09:54:04;;;;;;;92.97;27.10;;;6.60;85.90;;;;;;4883745;29;20065;-82
2021/11/24 09:56:31;;;;;;;100.68;29.70;;;6.60;85.90;;;;;;4883645;29;20756;-83
2021/11/24 09:59:14;;;;;;;89.93;27.00;;;6.70;85.90;;;;;;4883755;29;20045;-83
2021/11/24 10:01:41;;;;;;;97.97;26.95;;;6.70;85.90;;;;;;4881274;29;20502;-83
2021/11/24 10:04:10;;;;;;;83.38;26.42;;;6.60;85.90;;;;;;4869827;29;20048;-83
2021/11/24 10:06:39;;;;;;;95.43;27.98;;;6.70;85.90;;;;;;4934535;29;20055;-83
2021/11/24 10:09:08;;;;;;;83.07;26.05;;;6.70;85.90;;;;;;4933177;29;20044;-83
2021/11/24 10:11:37;;;;;;;93.53;26.40;;;6.70;85.90;;;;;;4933310;29;20051;-82
2021/11/24 10:14:04;;;;;;;86.68;24.77;;;6.70;85.90;;;;;;4933296;29;20044;-83
2021/11/24 10:16:34;;;;;;;84.28;25.00;;;6.70;85.90;;;;;;4932912;29;20612;-83
2021/11/24 10:19:10;;;;;;;71.43;25.02;;;6.70;85.90;;;;;;4931356;29;20051;-83
2021/11/24 10:22:00;;;;;;;80.43;24.83;;;6.70;85.90;;;;;;4934095;29;20059;-83
2021/11/24 10:24:36;;;;;;;73.85;24.92;;;6.70;85.90;;;;;;4933541;29;20063;-83
2021/11/24 10:27:08;;;;;;;81.70;25.08;;;6.80;85.90;;;;;;4931691;29;20087;-83
2021/11/24 10:29:56;;;;;;;79.53;24.83;;;6.80;85.80;;;;;;4932690;29;20498;-83
2021/11/24 10:32:27;;;;;;;75.65;24.33;;;6.70;85.80;;;;;;4932818;29;20055;-83
2021/11/24 10:34:57;;;;;;;72.43;24.52;;;6.70;85.80;;;;;;4932750;29;20532;-83
2021/11/24 10:37:25;;;;;;;71.47;23.83;;;6.80;85.90;;;;;;4932617;29;20056;-83
2021/11/24 10:40:12;;;;;;;71.18;25.08;;;6.80;85.90;;;;;;4934694;29;20048;-83
2021/11/24 10:42:41;;;;;;;66.00;23.48;;;6.80;85.80;;;;;;4934499;29;20055;-83
2021/11/24 10:45:15;;;;;;;63.17;22.90;;;6.80;85.80;;;;;;4932524;29;20107;-83
2021/11/24 10:48:08;;;;;;;65.78;22.55;;;6.80;85.80;;;;;;4932606;29;20063;-83
2021/11/24 10:50:39;;;;;;;63.72;23.60;;;6.80;85.80;;;;;;4931755;29;20544;-83
2021/11/24 10:53:18;;;;;;;65.68;22.55;;;6.80;85.80;;;;;;4932523;29;20142;-83
2021/11/24 10:55:45;;;;;;;61.78;22.88;;;6.80;85.80;;;;;;4932305;29;20047;-83
2021/11/24 10:58:18;;;;;;;63.78;22.42;;;6.80;85.80;;;;;;4933228;29;20051;-83
2021/11/24 11:00:48;;;;;;;59.15;23.23;;;6.80;85.80;;;;;;4932998;29;20067;-83
2021/11/24 11:03:41;;;;;;;57.13;22.70;;;6.80;85.80;;;;;;4931538;29;20110;-82
2021/11/24 11:06:09;;;;;;;64.03;24.05;;;6.80;85.80;;;;;;4930614;29;20162;-83
2021/11/24 11:08:36;;;;;;;60.38;21.75;;;6.90;85.80;;;;;;4932143;29;20048;-83
2021/11/24 11:11:33;;;;;;;69.38;24.65;;;6.90;85.80;;;;;;4932098;29;20056;-82
2021/11/24 11:14:22;;;;;;;64.20;23.75;;;6.90;85.80;;;;;;4932230;29;20449;-83
2021/11/24 11:16:55;;;;;;;69.50;24.48;;;6.90;85.80;;;;;;4919783;29;20048;-83
2021/11/24 11:19:40;;;;;;;56.47;22.50;;;6.90;85.80;;;;;;4931661;29;20602;-82
2021/11/24 11:22:09;;;;;;;59.83;22.25;;;6.90;85.80;;;;;;4930668;29;20074;-83
2021/11/24 11:24:37;;;;;;;59.15;22.20;;;6.90;85.70;;;;;;4933476;29;20179;-83
2021/11/24 11:27:06;;;;;;;62.08;21.58;;;6.90;85.70;;;;;;4932037;29;20062;-82
2021/11/24 11:29:36;;;;;;;56.60;23.15;;;6.90;85.70;;;;;;4931269;29;20067;-83
2021/11/24 11:32:07;;;;;;;58.15;22.92;;;6.90;85.70;;;;;;4932114;29;20044;-83
2021/11/24 11:34:39;;;;;;;57.67;22.88;;;6.90;85.70;;;;;;4917306;29;20080;-83
2021/11/24 11:37:07;;;;;;;55.65;22.52;;;6.90;85.70;;;;;;4933129;29;20048;-83
2021/11/24 11:39:35;;;;;;;57.42;21.10;;;7.00;85.70;;;;;;4933067;29;20501;-83
2021/11/24 11:42:12;;;;;;;59.90;22.75;;;7.00;85.70;;;;;;4931820;29;20107;-83
2021/11/24 11:45:08;;;;;;;52.20;21.25;;;7.00;85.60;;;;;;4930582;29;20095;-83
2021/11/24 11:47:50;;;;;;;55.47;21.55;;;7.00;85.60;;;;;;4931656;29;20521;-83
2021/11/24 11:50:47;;;;;;;50.85;22.27;;;7.00;85.60;;;;;;4930457;29;20050;-82
2021/11/24 11:53:18;;;;;;;49.95;21.15;;;7.00;85.60;;;;;;4931680;29;20039;-83
2021/11/24 11:55:48;;;;;;;61.40;22.67;;;7.00;85.60;;;;;;4931436;29;20454;-83
2021/11/24 11:58:29;;;;;;;49.65;20.33;;;7.00;85.60;;;;;;4931728;29;20047;-82
2021/11/24 12:01:11;;;;;;;52.75;21.60;;;7.00;85.50;;;;;;4929527;29;20460;-83
2021/11/24 12:04:05;;;;;;;58.17;22.23;;;7.10;85.50;;;;;;4933020;29;20062;-83
2021/11/24 12:06:34;;;;;;;54.45;21.27;;;7.10;85.50;;;;;;4913764;29;20553;-83
2021/11/24 12:09:07;;;;;;;58.50;21.25;;;7.10;85.50;;;;;;4913987;29;20104;-83
2021/11/24 12:12:05;;;;;;;55.28;21.58;;;7.10;85.50;;;;;;4914203;29;20048;-83
2021/11/24 12:14:51;;;;;;;54.67;21.15;;;7.20;85.40;;;;;;4920777;29;20546;-83
2021/11/24 12:17:46;;;;;;;51.60;21.70;;;7.20;85.40;;;;;;4920064;29;20076;-83
2021/11/24 12:20:19;;;;;;;49.67;20.75;;;7.20;85.40;;;;;;4918264;29;20047;-83
2021/11/24 12:22:49;;;;;;;50.42;20.98;;;7.30;85.40;;;;;;4927154;29;20087;-83
2021/11/24 12:25:25;;;;;;;52.92;21.25;;;7.30;85.40;;;;;;4912820;29;20059;-83
2021/11/24 12:30:47;;;;;;;51.05;22.70;;;7.40;85.40;;;;;;4914800;29;20059;-83
2021/11/24 12:33:24;;;;;;;54.83;21.85;;;7.40;85.50;;;;;;4913678;29;20063;-83
2021/11/24 12:36:00;;;;;;;52.95;21.25;;;7.40;85.40;;;;;;4913755;29;20057;-83
2021/11/24 12:38:32;;;;;;;50.92;20.60;;;7.50;85.40;;;;;;4913967;29;20044;-83
2021/11/24 12:41:03;;;;;;;50.97;20.80;;;7.60;85.40;;;;;;4918981;29;20051;-83
2021/11/24 12:43:32;;;;;;;48.92;20.15;;;7.60;85.30;;;;;;4918875;29;20055;-83
2021/11/24 12:45:59;;;;;;;46.88;19.85;;;7.70;85.30;;;;;;4932793;29;20052;-83
2021/11/24 12:48:39;;;;;;;46.22;21.08;;;7.70;85.20;;;;;;4933553;29;20058;-83
2021/11/24 12:51:10;;;;;;;42.30;19.85;;;7.80;85.10;;;;;;4934663;29;20059;-83